sensor_id;sensor_type;location;lat;lon;timestamp;temperature;humidity
4673;DHT22;61885;53.560;9.940;2022-11-20T00:01:44;1.80;68.40
4673;DHT22;61885;53.560;9.940;2022-11-20T00:04:14;3.50;70.20
4673;DHT22;61885;53.560;9.940;2022-11-20T00:06:46;1.90;68.50
4673;DHT22;61885;53.560;9.940;2022-11-20T00:09:18;1.90;67.70
4673;DHT22;61885;53.560;9.940;2022-11-20T00:11:50;1.90;68.10
4673;DHT22;61885;53.560;9.940;2022-11-20T00:14:20;1.90;69.20
4673;DHT22;61885;53.560;9.940;2022-11-20T00:16:56;1.90;68.90
4673;DHT22;61885;53.560;9.940;2022-11-20T00:19:26;3.60;72.20
4673;DHT22;61885;53.560;9.940;2022-11-20T00:21:56;2.00;71.80
4673;DHT22;61885;53.560;9.940;2022-11-20T00:24:27;2.50;73.40
4673;DHT22;61885;53.560;9.940;2022-11-20T00:26:57;2.00;73.40
4673;DHT22;61885;53.560;9.940;2022-11-20T00:29:27;1.90;74.40
4673;DHT22;61885;53.560;9.940;2022-11-20T00:31:59;1.90;74.70
4673;DHT22;61885;53.560;9.940;2022-11-20T00:34:30;1.90;75.40
4673;DHT22;61885;53.560;9.940;2022-11-20T00:37:00;2.00;75.30
4673;DHT22;61885;53.560;9.940;2022-11-20T00:39:30;1.90;76.40
4673;DHT22;61885;53.560;9.940;2022-11-20T00:42:00;1.90;78.70
4673;DHT22;61885;53.560;9.940;2022-11-20T00:44:33;2.00;79.60
4673;DHT22;61885;53.560;9.940;2022-11-20T00:47:08;2.00;79.50
4673;DHT22;61885;53.560;9.940;2022-11-20T00:49:38;1.90;81.70
4673;DHT22;61885;53.560;9.940;2022-11-20T00:52:08;1.90;85.20
4673;DHT22;61885;53.560;9.940;2022-11-20T00:54:37;1.90;86.90
4673;DHT22;61885;53.560;9.940;2022-11-20T00:57:07;1.90;88.50
4673;DHT22;61885;53.560;9.940;2022-11-20T00:59:37;2.30;90.70
4673;DHT22;61885;53.560;9.940;2022-11-20T01:02:11;1.90;91.30
4673;DHT22;61885;53.560;9.940;2022-11-20T01:04:42;1.80;93.10
4673;DHT22;61885;53.560;9.940;2022-11-20T01:07:12;1.90;94.50
4673;DHT22;61885;53.560;9.940;2022-11-20T01:09:43;1.90;95.30
4673;DHT22;61885;53.560;9.940;2022-11-20T01:12:14;1.80;99.10
4673;DHT22;61885;53.560;9.940;2022-11-20T01:14:44;1.80;99.90
4673;DHT22;61885;53.560;9.940;2022-11-20T01:17:17;1.80;99.90
4673;DHT22;61885;53.560;9.940;2022-11-20T01:19:55;1.80;99.90
4673;DHT22;61885;53.560;9.940;2022-11-20T01:22:24;1.40;99.90
4673;DHT22;61885;53.560;9.940;2022-11-20T01:24:54;1.80;99.90
4673;DHT22;61885;53.560;9.940;2022-11-20T01:27:24;1.90;99.90
4673;DHT22;61885;53.560;9.940;2022-11-20T01:29:56;1.90;99.90
4673;DHT22;61885;53.560;9.940;2022-11-20T01:32:30;1.80;99.90
4673;DHT22;61885;53.560;9.940;2022-11-20T01:35:09;1.90;99.90
4673;DHT22;61885;53.560;9.940;2022-11-20T01:37:41;1.90;99.90
4673;DHT22;61885;53.560;9.940;2022-11-20T01:40:14;1.90;99.90
4673;DHT22;61885;53.560;9.940;2022-11-20T01:42:47;1.90;99.90
4673;DHT22;61885;53.560;9.940;2022-11-20T01:45:56;1.90;99.90
4673;DHT22;61885;53.560;9.940;2022-11-20T01:48:37;1.80;99.90
4673;DHT22;61885;53.560;9.940;2022-11-20T01:51:14;1.90;99.90
4673;DHT22;61885;53.560;9.940;2022-11-20T01:53:45;1.80;99.90
4673;DHT22;61885;53.560;9.940;2022-11-20T01:56:16;1.90;99.90
4673;DHT22;61885;53.560;9.940;2022-11-20T01:58:49;1.80;99.90
4673;DHT22;61885;53.560;9.940;2022-11-20T02:01:21;1.80;99.90
4673;DHT22;61885;53.560;9.940;2022-11-20T02:03:56;1.80;99.90
4673;DHT22;61885;53.560;9.940;2022-11-20T02:06:31;1.90;99.90
4673;DHT22;61885;53.560;9.940;2022-11-20T02:09:03;1.80;99.90
4673;DHT22;61885;53.560;9.940;2022-11-20T02:11:38;1.80;99.90
4673;DHT22;61885;53.560;9.940;2022-11-20T02:14:08;1.80;99.90
4673;DHT22;61885;53.560;9.940;2022-11-20T02:16:39;1.70;99.90
4673;DHT22;61885;53.560;9.940;2022-11-20T02:19:21;1.80;99.90
4673;DHT22;61885;53.560;9.940;2022-11-20T02:21:59;1.80;99.90
4673;DHT22;61885;53.560;9.940;2022-11-20T02:24:35;1.80;99.90
4673;DHT22;61885;53.560;9.940;2022-11-20T02:27:09;1.80;99.90
4673;DHT22;61885;53.560;9.940;2022-11-20T02:29:43;1.80;99.90
4673;DHT22;61885;53.560;9.940;2022-11-20T02:32:19;1.80;99.90
4673;DHT22;61885;53.560;9.940;2022-11-20T02:34:51;1.80;99.90
4673;DHT22;61885;53.560;9.940;2022-11-20T02:37:21;1.80;99.90
4673;DHT22;61885;53.560;9.940;2022-11-20T02:39:54;2.60;99.90
4673;DHT22;61885;53.560;9.940;2022-11-20T02:42:24;4.40;99.90
4673;DHT22;61885;53.560;9.940;2022-11-20T02:44:55;1.70;99.90
4673;DHT22;61885;53.560;9.940;2022-11-20T02:47:25;1.80;99.90
4673;DHT22;61885;53.560;9.940;2022-11-20T02:49:55;1.70;99.90
4673;DHT22;61885;53.560;9.940;2022-11-20T02:52:26;1.40;99.90
4673;DHT22;61885;53.560;9.940;2022-11-20T02:54:59;1.80;99.90
4673;DHT22;61885;53.560;9.940;2022-11-20T02:57:29;1.80;99.90
4673;DHT22;61885;53.560;9.940;2022-11-20T02:59:58;1.80;99.90
4673;DHT22;61885;53.560;9.940;2022-11-20T03:02:29;1.80;99.90
4673;DHT22;61885;53.560;9.940;2022-11-20T03:05:00;1.70;99.90
4673;DHT22;61885;53.560;9.940;2022-11-20T03:07:32;1.80;99.90
4673;DHT22;61885;53.560;9.940;2022-11-20T03:10:06;1.80;99.90
4673;DHT22;61885;53.560;9.940;2022-11-20T03:12:38;1.80;99.90
4673;DHT22;61885;53.560;9.940;2022-11-20T03:15:09;3.50;99.90
4673;DHT22;61885;53.560;9.940;2022-11-20T03:17:40;1.80;99.90
4673;DHT22;61885;53.560;9.940;2022-11-20T03:20:10;1.80;99.90
4673;DHT22;61885;53.560;9.940;2022-11-20T03:22:40;1.80;99.90
4673;DHT22;61885;53.560;9.940;2022-11-20T03:25:13;1.80;99.90
4673;DHT22;61885;53.560;9.940;2022-11-20T03:27:42;1.80;99.90
4673;DHT22;61885;53.560;9.940;2022-11-20T03:30:13;1.80;99.90
4673;DHT22;61885;53.560;9.940;2022-11-20T03:32:43;1.80;99.90
4673;DHT22;61885;53.560;9.940;2022-11-20T03:35:14;1.80;99.90
4673;DHT22;61885;53.560;9.940;2022-11-20T03:37:45;1.80;99.90
4673;DHT22;61885;53.560;9.940;2022-11-20T03:40:19;1.70;99.90
4673;DHT22;61885;53.560;9.940;2022-11-20T03:42:49;1.80;99.90
4673;DHT22;61885;53.560;9.940;2022-11-20T03:45:19;-0.10;99.90
4673;DHT22;61885;53.560;9.940;2022-11-20T03:47:50;1.70;99.90
4673;DHT22;61885;53.560;9.940;2022-11-20T03:50:20;1.60;99.90
4673;DHT22;61885;53.560;9.940;2022-11-20T03:52:51;1.70;99.90
4673;DHT22;61885;53.560;9.940;2022-11-20T03:55:24;1.70;99.90
4673;DHT22;61885;53.560;9.940;2022-11-20T03:57:54;2.80;99.90
4673;DHT22;61885;53.560;9.940;2022-11-20T04:00:24;1.70;99.90
4673;DHT22;61885;53.560;9.940;2022-11-20T04:02:58;1.70;99.90
4673;DHT22;61885;53.560;9.940;2022-11-20T04:05:28;1.70;99.90
4673;DHT22;61885;53.560;9.940;2022-11-20T04:07:58;1.70;99.90
4673;DHT22;61885;53.560;9.940;2022-11-20T04:10:31;1.60;99.90
4673;DHT22;61885;53.560;9.940;2022-11-20T04:13:01;1.70;99.90
4673;DHT22;61885;53.560;9.940;2022-11-20T04:15:31;1.70;99.90
4673;DHT22;61885;53.560;9.940;2022-11-20T04:18:02;1.70;99.90
4673;DHT22;61885;53.560;9.940;2022-11-20T04:20:33;2.30;99.90
4673;DHT22;61885;53.560;9.940;2022-11-20T04:23:03;1.70;99.90
4673;DHT22;61885;53.560;9.940;2022-11-20T04:25:39;1.70;99.90
4673;DHT22;61885;53.560;9.940;2022-11-20T04:28:09;1.70;99.90
4673;DHT22;61885;53.560;9.940;2022-11-20T04:30:41;1.60;99.90
4673;DHT22;61885;53.560;9.940;2022-11-20T04:33:12;1.70;99.90
4673;DHT22;61885;53.560;9.940;2022-11-20T04:35:43;1.60;99.90
4673;DHT22;61885;53.560;9.940;2022-11-20T04:38:15;1.50;99.90
4673;DHT22;61885;53.560;9.940;2022-11-20T04:40:47;1.70;99.90
4673;DHT22;61885;53.560;9.940;2022-11-20T04:43:19;1.70;99.90
4673;DHT22;61885;53.560;9.940;2022-11-20T04:45:50;1.60;99.90
4673;DHT22;61885;53.560;9.940;2022-11-20T04:48:20;1.60;99.90
4673;DHT22;61885;53.560;9.940;2022-11-20T04:50:51;1.60;99.90
4673;DHT22;61885;53.560;9.940;2022-11-20T04:53:24;1.60;99.90
4673;DHT22;61885;53.560;9.940;2022-11-20T04:56:03;1.60;99.90
4673;DHT22;61885;53.560;9.940;2022-11-20T04:58:34;1.60;99.90
4673;DHT22;61885;53.560;9.940;2022-11-20T05:01:06;1.60;99.90
4673;DHT22;61885;53.560;9.940;2022-11-20T05:03:36;1.60;99.90
4673;DHT22;61885;53.560;9.940;2022-11-20T05:06:07;1.50;99.90
4673;DHT22;61885;53.560;9.940;2022-11-20T05:08:37;3.20;99.90
4673;DHT22;61885;53.560;9.940;2022-11-20T05:11:12;1.70;99.90
4673;DHT22;61885;53.560;9.940;2022-11-20T05:13:43;1.60;99.90
4673;DHT22;61885;53.560;9.940;2022-11-20T05:16:14;1.60;99.90
4673;DHT22;61885;53.560;9.940;2022-11-20T05:18:44;1.50;99.90
4673;DHT22;61885;53.560;9.940;2022-11-20T05:21:17;1.50;99.90
4673;DHT22;61885;53.560;9.940;2022-11-20T05:23:47;1.50;99.90
4673;DHT22;61885;53.560;9.940;2022-11-20T05:26:21;1.50;99.90
4673;DHT22;61885;53.560;9.940;2022-11-20T05:28:51;1.40;99.90
4673;DHT22;61885;53.560;9.940;2022-11-20T05:31:23;1.50;99.90
4673;DHT22;61885;53.560;9.940;2022-11-20T05:33:56;1.40;99.90
4673;DHT22;61885;53.560;9.940;2022-11-20T05:36:26;1.40;99.90
4673;DHT22;61885;53.560;9.940;2022-11-20T05:38:57;1.40;99.90
4673;DHT22;61885;53.560;9.940;2022-11-20T05:41:30;1.40;99.90
4673;DHT22;61885;53.560;9.940;2022-11-20T05:44:03;1.40;99.90
4673;DHT22;61885;53.560;9.940;2022-11-20T05:46:33;1.50;99.90
4673;DHT22;61885;53.560;9.940;2022-11-20T05:49:03;1.40;99.90
4673;DHT22;61885;53.560;9.940;2022-11-20T05:51:33;1.50;99.90
4673;DHT22;61885;53.560;9.940;2022-11-20T05:54:04;4.10;99.90
4673;DHT22;61885;53.560;9.940;2022-11-20T05:56:37;1.50;99.90
4673;DHT22;61885;53.560;9.940;2022-11-20T05:59:10;1.40;99.90
4673;DHT22;61885;53.560;9.940;2022-11-20T06:01:40;1.40;99.90
4673;DHT22;61885;53.560;9.940;2022-11-20T06:04:12;1.40;99.90
4673;DHT22;61885;53.560;9.940;2022-11-20T06:06:43;2.00;99.90
4673;DHT22;61885;53.560;9.940;2022-11-20T06:09:14;1.80;99.90
4673;DHT22;61885;53.560;9.940;2022-11-20T06:11:46;1.60;99.90
4673;DHT22;61885;53.560;9.940;2022-11-20T06:14:16;1.40;99.90
4673;DHT22;61885;53.560;9.940;2022-11-20T06:16:47;1.40;99.90
4673;DHT22;61885;53.560;9.940;2022-11-20T06:19:17;1.40;99.90
4673;DHT22;61885;53.560;9.940;2022-11-20T06:21:47;1.30;99.90
4673;DHT22;61885;53.560;9.940;2022-11-20T06:24:19;1.40;99.90
4673;DHT22;61885;53.560;9.940;2022-11-20T06:26:54;1.30;99.90
4673;DHT22;61885;53.560;9.940;2022-11-20T06:29:23;1.40;99.90
4673;DHT22;61885;53.560;9.940;2022-11-20T06:31:56;1.40;99.90
4673;DHT22;61885;53.560;9.940;2022-11-20T06:34:26;1.30;99.90
4673;DHT22;61885;53.560;9.940;2022-11-20T06:36:56;1.50;99.90
4673;DHT22;61885;53.560;9.940;2022-11-20T06:39:26;1.40;99.90
4673;DHT22;61885;53.560;9.940;2022-11-20T06:42:00;1.50;99.90
4673;DHT22;61885;53.560;9.940;2022-11-20T06:44:31;1.50;99.90
4673;DHT22;61885;53.560;9.940;2022-11-20T06:47:00;1.30;99.90
4673;DHT22;61885;53.560;9.940;2022-11-20T06:49:30;1.30;99.90
4673;DHT22;61885;53.560;9.940;2022-11-20T06:52:00;1.30;99.90
4673;DHT22;61885;53.560;9.940;2022-11-20T06:54:30;1.30;99.90
4673;DHT22;61885;53.560;9.940;2022-11-20T06:57:02;1.40;99.90
4673;DHT22;61885;53.560;9.940;2022-11-20T06:59:32;1.30;99.90
4673;DHT22;61885;53.560;9.940;2022-11-20T07:02:02;1.30;99.90
4673;DHT22;61885;53.560;9.940;2022-11-20T07:04:32;1.20;99.90
4673;DHT22;61885;53.560;9.940;2022-11-20T07:07:01;1.20;99.90
4673;DHT22;61885;53.560;9.940;2022-11-20T07:09:31;1.30;99.90
4673;DHT22;61885;53.560;9.940;2022-11-20T07:12:04;1.20;99.90
4673;DHT22;61885;53.560;9.940;2022-11-20T07:14:34;1.20;99.90
4673;DHT22;61885;53.560;9.940;2022-11-20T07:17:04;1.20;99.90
4673;DHT22;61885;53.560;9.940;2022-11-20T07:19:34;1.20;99.90
4673;DHT22;61885;53.560;9.940;2022-11-20T07:22:05;1.20;99.90
4673;DHT22;61885;53.560;9.940;2022-11-20T07:24:36;1.20;99.90
4673;DHT22;61885;53.560;9.940;2022-11-20T07:27:09;1.40;99.90
4673;DHT22;61885;53.560;9.940;2022-11-20T07:29:39;1.20;99.90
4673;DHT22;61885;53.560;9.940;2022-11-20T07:32:11;1.20;99.90
4673;DHT22;61885;53.560;9.940;2022-11-20T07:34:43;1.20;99.90
4673;DHT22;61885;53.560;9.940;2022-11-20T07:37:16;1.20;99.90
4673;DHT22;61885;53.560;9.940;2022-11-20T07:39:47;1.30;99.90
4673;DHT22;61885;53.560;9.940;2022-11-20T07:42:20;1.30;99.90
4673;DHT22;61885;53.560;9.940;2022-11-20T07:44:50;1.30;99.90
4673;DHT22;61885;53.560;9.940;2022-11-20T07:47:21;1.40;99.90
4673;DHT22;61885;53.560;9.940;2022-11-20T07:49:51;1.40;99.90
4673;DHT22;61885;53.560;9.940;2022-11-20T07:52:23;1.40;99.90
4673;DHT22;61885;53.560;9.940;2022-11-20T07:54:53;1.50;99.90
4673;DHT22;61885;53.560;9.940;2022-11-20T07:57:27;1.50;99.90
4673;DHT22;61885;53.560;9.940;2022-11-20T07:59:57;1.50;99.90
4673;DHT22;61885;53.560;9.940;2022-11-20T08:02:29;1.40;99.90
4673;DHT22;61885;53.560;9.940;2022-11-20T08:04:58;1.40;99.90
4673;DHT22;61885;53.560;9.940;2022-11-20T08:07:28;-0.40;99.90
4673;DHT22;61885;53.560;9.940;2022-11-20T08:10:05;1.30;99.90
4673;DHT22;61885;53.560;9.940;2022-11-20T08:12:43;1.30;99.90
4673;DHT22;61885;53.560;9.940;2022-11-20T08:15:25;1.20;99.90
4673;DHT22;61885;53.560;9.940;2022-11-20T08:18:00;1.30;99.90
4673;DHT22;61885;53.560;9.940;2022-11-20T08:20:31;1.30;99.90
4673;DHT22;61885;53.560;9.940;2022-11-20T08:23:03;1.40;99.90
4673;DHT22;61885;53.560;9.940;2022-11-20T08:25:34;1.40;99.90
4673;DHT22;61885;53.560;9.940;2022-11-20T08:28:09;1.50;99.90
4673;DHT22;61885;53.560;9.940;2022-11-20T08:30:44;1.50;99.90
4673;DHT22;61885;53.560;9.940;2022-11-20T08:33:16;1.70;99.90
4673;DHT22;61885;53.560;9.940;2022-11-20T08:35:50;1.60;99.90
4673;DHT22;61885;53.560;9.940;2022-11-20T08:38:24;1.50;99.90
4673;DHT22;61885;53.560;9.940;2022-11-20T08:40:57;1.50;99.90
4673;DHT22;61885;53.560;9.940;2022-11-20T08:43:42;1.50;99.90
4673;DHT22;61885;53.560;9.940;2022-11-20T08:46:13;1.60;99.90
4673;DHT22;61885;53.560;9.940;2022-11-20T08:48:45;1.70;99.90
4673;DHT22;61885;53.560;9.940;2022-11-20T08:51:15;1.60;99.90
4673;DHT22;61885;53.560;9.940;2022-11-20T08:53:45;1.70;99.90
4673;DHT22;61885;53.560;9.940;2022-11-20T08:56:17;1.70;99.90
4673;DHT22;61885;53.560;9.940;2022-11-20T08:58:53;1.80;99.90
4673;DHT22;61885;53.560;9.940;2022-11-20T09:01:25;1.80;99.90
4673;DHT22;61885;53.560;9.940;2022-11-20T09:03:56;1.80;99.90
4673;DHT22;61885;53.560;9.940;2022-11-20T09:06:41;1.80;99.90
4673;DHT22;61885;53.560;9.940;2022-11-20T09:09:12;1.80;99.90
4673;DHT22;61885;53.560;9.940;2022-11-20T09:11:44;1.90;99.90
4673;DHT22;61885;53.560;9.940;2022-11-20T09:14:16;1.90;99.90
4673;DHT22;61885;53.560;9.940;2022-11-20T09:16:51;1.80;99.90
4673;DHT22;61885;53.560;9.940;2022-11-20T09:19:24;1.90;99.90
4673;DHT22;61885;53.560;9.940;2022-11-20T09:21:58;1.90;99.90
4673;DHT22;61885;53.560;9.940;2022-11-20T09:24:32;1.90;99.90
4673;DHT22;61885;53.560;9.940;2022-11-20T09:27:06;1.60;99.90
4673;DHT22;61885;53.560;9.940;2022-11-20T09:29:40;2.00;99.90
4673;DHT22;61885;53.560;9.940;2022-11-20T09:32:10;2.00;99.90
4673;DHT22;61885;53.560;9.940;2022-11-20T09:34:39;2.10;99.90
4673;DHT22;61885;53.560;9.940;2022-11-20T09:39:53;2.00;99.90
4673;DHT22;61885;53.560;9.940;2022-11-20T09:42:35;2.00;99.90
4673;DHT22;61885;53.560;9.940;2022-11-20T09:45:22;1.90;99.90
4673;DHT22;61885;53.560;9.940;2022-11-20T09:48:27;1.90;99.90
4673;DHT22;61885;53.560;9.940;2022-11-20T09:51:09;1.90;99.90
4673;DHT22;61885;53.560;9.940;2022-11-20T09:53:51;1.80;99.90
4673;DHT22;61885;53.560;9.940;2022-11-20T09:56:28;1.80;99.90
4673;DHT22;61885;53.560;9.940;2022-11-20T09:59:02;1.80;99.90
4673;DHT22;61885;53.560;9.940;2022-11-20T10:01:40;1.90;99.90
4673;DHT22;61885;53.560;9.940;2022-11-20T10:04:16;2.40;99.90
4673;DHT22;61885;53.560;9.940;2022-11-20T10:06:55;2.20;99.90
4673;DHT22;61885;53.560;9.940;2022-11-20T10:09:31;2.30;99.90
4673;DHT22;61885;53.560;9.940;2022-11-20T10:12:14;2.20;99.90
4673;DHT22;61885;53.560;9.940;2022-11-20T10:14:58;2.40;99.90
4673;DHT22;61885;53.560;9.940;2022-11-20T10:17:51;2.30;99.90
4673;DHT22;61885;53.560;9.940;2022-11-20T10:20:28;2.30;99.90
4673;DHT22;61885;53.560;9.940;2022-11-20T10:23:13;2.40;99.90
4673;DHT22;61885;53.560;9.940;2022-11-20T10:25:55;2.50;99.90
4673;DHT22;61885;53.560;9.940;2022-11-20T10:28:38;2.60;99.90
4673;DHT22;61885;53.560;9.940;2022-11-20T10:31:22;2.60;99.90
4673;DHT22;61885;53.560;9.940;2022-11-20T10:34:00;2.70;99.90
4673;DHT22;61885;53.560;9.940;2022-11-20T10:36:35;3.30;99.90
4673;DHT22;61885;53.560;9.940;2022-11-20T10:39:16;2.50;99.90
4673;DHT22;61885;53.560;9.940;2022-11-20T10:41:51;2.60;99.90
4673;DHT22;61885;53.560;9.940;2022-11-20T10:44:25;2.40;99.90
4673;DHT22;61885;53.560;9.940;2022-11-20T10:47:13;2.40;99.90
4673;DHT22;61885;53.560;9.940;2022-11-20T10:49:50;2.40;99.90
4673;DHT22;61885;53.560;9.940;2022-11-20T10:52:30;2.30;99.90
4673;DHT22;61885;53.560;9.940;2022-11-20T10:55:09;2.40;99.90
4673;DHT22;61885;53.560;9.940;2022-11-20T10:57:52;2.40;99.90
4673;DHT22;61885;53.560;9.940;2022-11-20T11:00:25;2.50;99.90
4673;DHT22;61885;53.560;9.940;2022-11-20T11:02:56;2.50;99.90
4673;DHT22;61885;53.560;9.940;2022-11-20T11:05:40;2.60;99.90
4673;DHT22;61885;53.560;9.940;2022-11-20T11:08:14;2.60;99.90
4673;DHT22;61885;53.560;9.940;2022-11-20T11:10:47;2.60;99.90
4673;DHT22;61885;53.560;9.940;2022-11-20T11:13:22;2.70;99.90
4673;DHT22;61885;53.560;9.940;2022-11-20T11:15:52;2.60;99.90
4673;DHT22;61885;53.560;9.940;2022-11-20T11:18:26;2.60;99.90
4673;DHT22;61885;53.560;9.940;2022-11-20T11:21:00;2.40;99.90
4673;DHT22;61885;53.560;9.940;2022-11-20T11:23:32;2.10;99.90
4673;DHT22;61885;53.560;9.940;2022-11-20T11:26:05;2.10;99.90
4673;DHT22;61885;53.560;9.940;2022-11-20T11:28:35;2.30;99.90
4673;DHT22;61885;53.560;9.940;2022-11-20T11:31:05;2.40;99.90
4673;DHT22;61885;53.560;9.940;2022-11-20T11:33:35;2.50;99.90
4673;DHT22;61885;53.560;9.940;2022-11-20T11:36:18;2.60;99.90
4673;DHT22;61885;53.560;9.940;2022-11-20T11:38:52;2.60;99.90
4673;DHT22;61885;53.560;9.940;2022-11-20T11:41:27;2.70;99.90
4673;DHT22;61885;53.560;9.940;2022-11-20T11:44:02;2.70;99.90
4673;DHT22;61885;53.560;9.940;2022-11-20T11:46:53;2.60;99.90
4673;DHT22;61885;53.560;9.940;2022-11-20T11:49:24;2.50;99.90
4673;DHT22;61885;53.560;9.940;2022-11-20T11:52:08;2.50;99.90
4673;DHT22;61885;53.560;9.940;2022-11-20T11:54:45;2.40;99.90
4673;DHT22;61885;53.560;9.940;2022-11-20T11:57:22;2.50;99.90
4673;DHT22;61885;53.560;9.940;2022-11-20T12:00:01;2.50;99.90
4673;DHT22;61885;53.560;9.940;2022-11-20T12:02:42;2.50;99.90
4673;DHT22;61885;53.560;9.940;2022-11-20T12:05:21;2.40;99.90
4673;DHT22;61885;53.560;9.940;2022-11-20T12:07:58;2.40;99.90
4673;DHT22;61885;53.560;9.940;2022-11-20T12:10:41;2.50;99.90
4673;DHT22;61885;53.560;9.940;2022-11-20T12:13:26;2.60;99.90
4673;DHT22;61885;53.560;9.940;2022-11-20T12:15:58;2.60;99.90
4673;DHT22;61885;53.560;9.940;2022-11-20T12:18:31;2.60;99.90
4673;DHT22;61885;53.560;9.940;2022-11-20T12:21:18;2.70;99.90
4673;DHT22;61885;53.560;9.940;2022-11-20T12:24:06;2.80;99.90
4673;DHT22;61885;53.560;9.940;2022-11-20T12:26:49;2.80;99.90
4673;DHT22;61885;53.560;9.940;2022-11-20T12:29:32;2.80;99.90
4673;DHT22;61885;53.560;9.940;2022-11-20T12:32:37;2.80;99.90
4673;DHT22;61885;53.560;9.940;2022-11-20T12:38:20;2.70;99.90
4673;DHT22;61885;53.560;9.940;2022-11-20T12:41:00;2.80;99.90
4673;DHT22;61885;53.560;9.940;2022-11-20T12:43:39;2.70;99.90
4673;DHT22;61885;53.560;9.940;2022-11-20T12:46:33;2.70;99.90
4673;DHT22;61885;53.560;9.940;2022-11-20T12:49:23;2.70;99.90
4673;DHT22;61885;53.560;9.940;2022-11-20T12:52:10;2.80;99.90
4673;DHT22;61885;53.560;9.940;2022-11-20T12:57:59;2.90;99.90
4673;DHT22;61885;53.560;9.940;2022-11-20T13:00:32;3.00;99.90
4673;DHT22;61885;53.560;9.940;2022-11-20T13:03:36;3.00;99.90
4673;DHT22;61885;53.560;9.940;2022-11-20T13:06:15;3.10;99.90
4673;DHT22;61885;53.560;9.940;2022-11-20T13:08:50;3.00;99.90
4673;DHT22;61885;53.560;9.940;2022-11-20T13:11:27;3.10;99.90
4673;DHT22;61885;53.560;9.940;2022-11-20T13:14:16;3.10;99.90
4673;DHT22;61885;53.560;9.940;2022-11-20T13:16:54;3.10;99.90
4673;DHT22;61885;53.560;9.940;2022-11-20T13:19:27;3.10;99.90
4673;DHT22;61885;53.560;9.940;2022-11-20T13:21:57;3.10;99.90
4673;DHT22;61885;53.560;9.940;2022-11-20T13:24:29;3.00;99.90
4673;DHT22;61885;53.560;9.940;2022-11-20T13:27:01;3.00;99.90
4673;DHT22;61885;53.560;9.940;2022-11-20T13:29:39;3.00;97.00
4673;DHT22;61885;53.560;9.940;2022-11-20T13:32:15;3.00;91.10
4673;DHT22;61885;53.560;9.940;2022-11-20T13:34:52;3.10;89.50
4673;DHT22;61885;53.560;9.940;2022-11-20T13:37:28;3.10;81.60
4673;DHT22;61885;53.560;9.940;2022-11-20T13:40:22;3.20;80.20
4673;DHT22;61885;53.560;9.940;2022-11-20T13:43:01;3.20;76.80
4673;DHT22;61885;53.560;9.940;2022-11-20T13:45:36;3.20;67.80
4673;DHT22;61885;53.560;9.940;2022-11-20T13:48:20;3.30;62.00
4673;DHT22;61885;53.560;9.940;2022-11-20T13:50:59;3.30;59.10
4673;DHT22;61885;53.560;9.940;2022-11-20T13:56:54;3.20;58.50
4673;DHT22;61885;53.560;9.940;2022-11-20T13:59:49;3.20;58.60
4673;DHT22;61885;53.560;9.940;2022-11-20T14:02:27;3.20;55.00
4673;DHT22;61885;53.560;9.940;2022-11-20T14:04:59;3.10;54.70
4673;DHT22;61885;53.560;9.940;2022-11-20T14:07:35;3.10;55.00
4673;DHT22;61885;53.560;9.940;2022-11-20T14:10:20;3.10;55.20
4673;DHT22;61885;53.560;9.940;2022-11-20T14:12:51;3.00;55.90
4673;DHT22;61885;53.560;9.940;2022-11-20T14:15:28;3.00;57.20
4673;DHT22;61885;53.560;9.940;2022-11-20T14:18:13;3.00;56.80
4673;DHT22;61885;53.560;9.940;2022-11-20T14:20:43;3.00;56.70
4673;DHT22;61885;53.560;9.940;2022-11-20T14:23:24;3.00;57.80
4673;DHT22;61885;53.560;9.940;2022-11-20T14:25:55;3.10;56.30
4673;DHT22;61885;53.560;9.940;2022-11-20T14:28:27;3.00;55.60
4673;DHT22;61885;53.560;9.940;2022-11-20T14:30:57;3.10;56.20
4673;DHT22;61885;53.560;9.940;2022-11-20T14:33:32;3.10;56.20
4673;DHT22;61885;53.560;9.940;2022-11-20T14:36:03;3.00;54.60
4673;DHT22;61885;53.560;9.940;2022-11-20T14:38:36;3.00;56.30
4673;DHT22;61885;53.560;9.940;2022-11-20T14:41:15;3.00;57.40
4673;DHT22;61885;53.560;9.940;2022-11-20T14:43:46;3.00;56.30
4673;DHT22;61885;53.560;9.940;2022-11-20T14:46:18;3.00;57.90
4673;DHT22;61885;53.560;9.940;2022-11-20T14:48:53;2.90;56.60
4673;DHT22;61885;53.560;9.940;2022-11-20T14:51:27;2.90;56.50
4673;DHT22;61885;53.560;9.940;2022-11-20T14:54:11;2.90;57.40
4673;DHT22;61885;53.560;9.940;2022-11-20T14:56:42;2.80;58.10
4673;DHT22;61885;53.560;9.940;2022-11-20T14:59:24;2.80;57.50
4673;DHT22;61885;53.560;9.940;2022-11-20T15:01:57;2.80;56.70
4673;DHT22;61885;53.560;9.940;2022-11-20T15:04:31;2.70;57.80
4673;DHT22;61885;53.560;9.940;2022-11-20T15:07:01;2.70;59.40
4673;DHT22;61885;53.560;9.940;2022-11-20T15:09:34;2.60;61.60
4673;DHT22;61885;53.560;9.940;2022-11-20T15:12:05;2.50;63.60
4673;DHT22;61885;53.560;9.940;2022-11-20T15:14:38;2.50;65.50
4673;DHT22;61885;53.560;9.940;2022-11-20T15:17:12;2.50;69.10
4673;DHT22;61885;53.560;9.940;2022-11-20T15:19:50;2.50;68.80
4673;DHT22;61885;53.560;9.940;2022-11-20T15:22:20;2.50;70.20
4673;DHT22;61885;53.560;9.940;2022-11-20T15:24:53;2.50;69.30
4673;DHT22;61885;53.560;9.940;2022-11-20T15:27:23;2.40;69.70
4673;DHT22;61885;53.560;9.940;2022-11-20T15:29:55;2.50;72.50
4673;DHT22;61885;53.560;9.940;2022-11-20T15:32:25;2.50;71.50
4673;DHT22;61885;53.560;9.940;2022-11-20T15:34:59;2.40;71.60
4673;DHT22;61885;53.560;9.940;2022-11-20T15:37:28;2.50;73.50
4673;DHT22;61885;53.560;9.940;2022-11-20T15:39:59;2.40;75.80
4673;DHT22;61885;53.560;9.940;2022-11-20T15:42:30;2.40;75.80
4673;DHT22;61885;53.560;9.940;2022-11-20T15:45:01;2.40;75.80
4673;DHT22;61885;53.560;9.940;2022-11-20T15:47:33;2.40;75.60
4673;DHT22;61885;53.560;9.940;2022-11-20T15:50:11;2.40;75.50
4673;DHT22;61885;53.560;9.940;2022-11-20T15:52:46;2.30;78.30
4673;DHT22;61885;53.560;9.940;2022-11-20T15:55:18;2.40;79.50
4673;DHT22;61885;53.560;9.940;2022-11-20T15:57:47;2.40;78.30
4673;DHT22;61885;53.560;9.940;2022-11-20T16:00:18;2.30;80.30
4673;DHT22;61885;53.560;9.940;2022-11-20T16:02:49;2.30;80.70
4673;DHT22;61885;53.560;9.940;2022-11-20T16:05:23;2.30;82.30
4673;DHT22;61885;53.560;9.940;2022-11-20T16:07:55;2.40;82.80
4673;DHT22;61885;53.560;9.940;2022-11-20T16:10:24;2.40;80.80
4673;DHT22;61885;53.560;9.940;2022-11-20T16:12:57;2.40;81.00
4673;DHT22;61885;53.560;9.940;2022-11-20T16:15:39;1.30;79.90
4673;DHT22;61885;53.560;9.940;2022-11-20T16:18:18;2.50;81.00
4673;DHT22;61885;53.560;9.940;2022-11-20T16:20:55;2.40;82.00
4673;DHT22;61885;53.560;9.940;2022-11-20T16:23:25;2.50;81.60
4673;DHT22;61885;53.560;9.940;2022-11-20T16:25:57;2.50;81.00
4673;DHT22;61885;53.560;9.940;2022-11-20T16:28:27;2.60;77.60
4673;DHT22;61885;53.560;9.940;2022-11-20T16:30:57;2.60;76.40
4673;DHT22;61885;53.560;9.940;2022-11-20T16:33:27;2.60;74.40
4673;DHT22;61885;53.560;9.940;2022-11-20T16:36:06;2.50;72.70
4673;DHT22;61885;53.560;9.940;2022-11-20T16:38:36;2.50;73.70
4673;DHT22;61885;53.560;9.940;2022-11-20T16:41:15;2.50;72.80
4673;DHT22;61885;53.560;9.940;2022-11-20T16:43:45;2.40;72.20
4673;DHT22;61885;53.560;9.940;2022-11-20T16:46:20;2.40;71.80
4673;DHT22;61885;53.560;9.940;2022-11-20T16:48:55;2.40;73.20
4673;DHT22;61885;53.560;9.940;2022-11-20T16:51:29;2.40;71.00
4673;DHT22;61885;53.560;9.940;2022-11-20T16:54:02;2.40;64.80
4673;DHT22;61885;53.560;9.940;2022-11-20T16:56:32;2.40;61.90
4673;DHT22;61885;53.560;9.940;2022-11-20T16:59:03;2.40;64.90